Time;durP1;ratioP1;P1;durP2;ratioP2;P2;SDS_P1;SDS_P2;PMS_P1;PMS_P2;Temp;Humidity;BMP_temperature;BMP_pressure;BME280_temperature;BME280_humidity;BME280_pressure;Samples;Min_cycle;Max_cycle;Signal;HPM_P1;HPM_P2
2022/07/15 00:02:13;;;;;;;0.00;0.00;;;14.00;99.90;;;;;;5082511;28;20095;-83
2022/07/15 00:04:39;;;;;;;0.10;0.10;;;14.00;99.90;;;;;;5034082;28;20042;-86
2022/07/15 00:07:06;;;;;;;0.10;0.10;;;14.10;99.90;;;;;;5046544;28;20037;-82
2022/07/15 00:12:18;;;;;;;0.00;0.00;;;14.10;99.90;;;;;;5086966;28;20464;-83
2022/07/15 00:14:45;;;;;;;0.00;0.00;;;14.10;99.90;;;;;;5037684;28;20282;-85
2022/07/15 00:17:12;;;;;;;0.03;0.03;;;14.10;99.90;;;;;;5053394;28;20037;-87
2022/07/15 00:19:38;;;;;;;0.30;0.22;;;14.20;99.90;;;;;;5053367;28;20041;-83
2022/07/15 00:22:05;;;;;;;0.00;0.00;;;14.10;99.90;;;;;;5053618;28;20037;-87
2022/07/15 00:24:32;;;;;;;0.10;0.10;;;14.10;99.90;;;;;;5070281;28;20035;-83
2022/07/15 00:26:58;;;;;;;0.10;0.10;;;14.20;99.90;;;;;;5052868;28;20824;-83
2022/07/15 00:29:25;;;;;;;0.00;0.00;;;14.10;99.90;;;;;;5053635;28;20043;-86
2022/07/15 00:31:53;;;;;;;0.05;0.05;;;14.20;99.90;;;;;;5053637;28;20486;-86
2022/07/15 00:34:20;;;;;;;0.00;0.00;;;14.20;99.90;;;;;;5069485;28;20132;-83
2022/07/15 00:36:47;;;;;;;0.65;0.40;;;14.20;99.90;;;;;;5037431;28;20045;-86
2022/07/15 00:39:15;;;;;;;0.05;0.05;;;14.20;99.90;;;;;;5069342;28;20413;-86
2022/07/15 00:41:43;;;;;;;1.65;0.35;;;14.10;99.90;;;;;;5069961;28;20044;-87
2022/07/15 00:44:11;;;;;;;0.20;0.20;;;14.20;99.90;;;;;;5054054;28;20033;-83
2022/07/15 00:46:38;;;;;;;0.32;0.32;;;14.20;99.90;;;;;;5052796;28;20445;-83
2022/07/15 00:49:07;;;;;;;0.10;0.10;;;14.20;99.90;;;;;;5086481;28;20045;-87
2022/07/15 00:51:42;;;;;;;0.05;0.05;;;14.20;99.90;;;;;;5069817;28;20041;-83
2022/07/15 00:54:11;;;;;;;0.22;0.15;;;14.10;99.90;;;;;;5086445;28;20548;-86
2022/07/15 00:56:44;;;;;;;0.10;0.10;;;14.10;99.90;;;;;;5072774;28;20068;-83
2022/07/15 00:59:12;;;;;;;0.30;0.25;;;14.10;99.90;;;;;;5073489;28;20044;-86
2022/07/15 01:01:41;;;;;;;0.10;0.10;;;14.10;99.90;;;;;;5056902;28;20451;-86
2022/07/15 01:04:09;;;;;;;0.15;0.15;;;14.10;99.90;;;;;;5073908;28;20831;-83
2022/07/15 01:06:36;;;;;;;0.00;0.00;;;14.10;99.90;;;;;;5090261;28;20029;-86
2022/07/15 01:09:03;;;;;;;0.08;0.08;;;14.10;99.90;;;;;;5090295;28;20406;-87
2022/07/15 01:11:30;;;;;;;0.00;0.00;;;14.10;99.90;;;;;;5056935;28;20048;-87
2022/07/15 01:13:58;;;;;;;0.00;0.00;;;14.10;99.90;;;;;;5040345;28;20045;-86
2022/07/15 01:16:26;;;;;;;0.00;0.00;;;14.10;99.90;;;;;;5056676;28;20040;-83
2022/07/15 01:18:53;;;;;;;0.08;0.08;;;14.10;99.90;;;;;;5073633;28;20091;-86
2022/07/15 01:21:20;;;;;;;0.00;0.00;;;14.10;99.90;;;;;;5073269;28;20040;-83
2022/07/15 01:23:47;;;;;;;0.08;0.08;;;14.10;99.90;;;;;;5073622;28;20732;-83
2022/07/15 01:26:14;;;;;;;0.10;0.10;;;14.10;99.90;;;;;;5056693;28;20076;-83
2022/07/15 01:28:41;;;;;;;0.05;0.05;;;14.10;99.90;;;;;;5056432;28;20079;-86
2022/07/15 01:31:08;;;;;;;0.35;0.20;;;14.10;99.90;;;;;;5040201;28;20037;-86
2022/07/15 01:33:36;;;;;;;0.08;0.08;;;14.00;99.90;;;;;;5056013;28;20383;-83
2022/07/15 01:36:03;;;;;;;0.00;0.00;;;14.00;99.90;;;;;;5072916;28;20486;-86
2022/07/15 01:38:30;;;;;;;0.10;0.10;;;14.00;99.90;;;;;;5039764;28;20061;-86
2022/07/15 01:40:57;;;;;;;0.10;0.10;;;13.90;99.90;;;;;;5056573;28;20045;-86
2022/07/15 01:43:24;;;;;;;0.10;0.10;;;13.90;99.90;;;;;;5039378;28;20120;-83
2022/07/15 01:45:50;;;;;;;0.00;0.00;;;13.80;99.90;;;;;;5072712;28;20045;-83
2022/07/15 01:51:02;;;;;;;0.10;0.10;;;13.80;99.90;;;;;;5061146;28;20087;-83
2022/07/15 01:53:29;;;;;;;0.00;0.00;;;13.80;99.90;;;;;;5039058;28;20581;-86
2022/07/15 01:55:56;;;;;;;0.10;0.10;;;13.70;99.90;;;;;;5071925;28;20079;-83
2022/07/15 01:58:23;;;;;;;0.10;0.10;;;13.70;99.90;;;;;;5089144;28;20110;-86
2022/07/15 02:00:49;;;;;;;0.10;0.10;;;13.70;99.90;;;;;;5039320;28;20044;-83
2022/07/15 02:03:16;;;;;;;0.10;0.10;;;13.70;99.90;;;;;;5055869;28;20033;-86
2022/07/15 02:05:43;;;;;;;0.05;0.05;;;13.70;99.90;;;;;;5055428;28;20090;-86
2022/07/15 02:08:10;;;;;;;0.00;0.00;;;13.70;99.90;;;;;;5039862;28;20096;-83
2022/07/15 02:10:39;;;;;;;0.00;0.00;;;13.70;99.90;;;;;;5039383;28;20622;-86
2022/07/15 02:13:11;;;;;;;0.00;0.00;;;13.70;99.90;;;;;;5040067;28;20486;-83
2022/07/15 02:15:39;;;;;;;0.00;0.00;;;13.60;99.90;;;;;;5071718;28;20040;-84
2022/07/15 02:18:07;;;;;;;0.10;0.10;;;13.60;99.90;;;;;;5072198;28;20131;-86
2022/07/15 02:20:34;;;;;;;0.00;0.00;;;13.60;99.90;;;;;;5087918;28;20048;-83
2022/07/15 02:23:01;;;;;;;0.22;0.20;;;13.60;99.90;;;;;;5071643;28;20037;-83
2022/07/15 02:25:30;;;;;;;0.00;0.00;;;13.50;99.90;;;;;;5055757;28;20029;-83
2022/07/15 02:28:00;;;;;;;0.10;0.10;;;13.50;99.90;;;;;;5071998;28;20037;-86
2022/07/15 02:30:29;;;;;;;0.08;0.08;;;13.60;99.90;;;;;;5071984;28;20039;-86
2022/07/15 02:32:56;;;;;;;0.00;0.00;;;13.50;99.90;;;;;;5071869;28;20111;-86
2022/07/15 02:35:23;;;;;;;0.00;0.00;;;13.50;99.90;;;;;;5071935;28;20552;-82
2022/07/15 02:37:51;;;;;;;0.00;0.00;;;13.50;99.90;;;;;;5071336;28;20103;-86
2022/07/15 02:40:17;;;;;;;0.10;0.10;;;13.40;99.90;;;;;;5071629;28;20513;-86
2022/07/15 02:42:48;;;;;;;0.10;0.10;;;13.50;99.90;;;;;;5071490;28;20041;-83
2022/07/15 02:45:15;;;;;;;0.10;0.10;;;13.40;99.90;;;;;;5071864;28;20052;-86
2022/07/15 02:47:41;;;;;;;0.00;0.00;;;13.30;99.90;;;;;;5071376;28;20041;-86
2022/07/15 02:50:08;;;;;;;0.10;0.10;;;13.30;99.90;;;;;;5071694;28;20041;-87
2022/07/15 02:52:35;;;;;;;1.17;0.20;;;13.20;99.90;;;;;;5054581;28;20036;-86
2022/07/15 02:55:03;;;;;;;1.95;0.17;;;13.20;99.90;;;;;;5055387;28;20037;-83
2022/07/15 02:57:29;;;;;;;0.03;0.03;;;13.20;99.90;;;;;;5071183;28;20052;-86
2022/07/15 02:59:56;;;;;;;0.00;0.00;;;13.10;99.90;;;;;;5038196;28;20040;-86
2022/07/15 03:02:23;;;;;;;0.00;0.00;;;13.10;99.90;;;;;;5055283;28;20045;-83
2022/07/15 03:04:49;;;;;;;0.10;0.10;;;13.10;99.90;;;;;;5054270;28;20037;-83
2022/07/15 03:07:16;;;;;;;0.10;0.10;;;13.00;99.90;;;;;;5038121;28;20044;-86
2022/07/15 03:09:43;;;;;;;0.00;0.00;;;13.00;99.90;;;;;;5054439;28;20103;-83
2022/07/15 03:12:09;;;;;;;0.38;0.10;;;13.00;99.90;;;;;;5054289;28;20067;-86
2022/07/15 03:14:36;;;;;;;0.00;0.00;;;13.00;99.90;;;;;;5070424;28;20564;-85
2022/07/15 03:17:03;;;;;;;0.05;0.05;;;13.10;99.90;;;;;;5072058;28;20048;-83
2022/07/15 03:19:29;;;;;;;0.20;0.10;;;13.10;99.90;;;;;;5053084;28;20040;-85
2022/07/15 03:21:56;;;;;;;0.00;0.00;;;13.10;99.90;;;;;;5049560;28;20044;-86
2022/07/15 03:24:23;;;;;;;0.00;0.00;;;13.10;99.90;;;;;;5067614;28;20052;-83
2022/07/15 03:26:49;;;;;;;0.05;0.05;;;13.10;99.90;;;;;;5065064;28;20378;-86
2022/07/15 03:29:16;;;;;;;0.10;0.10;;;13.10;99.90;;;;;;5079220;28;20040;-86
2022/07/15 03:31:43;;;;;;;0.05;0.05;;;13.10;99.90;;;;;;5053296;28;20101;-86
2022/07/15 03:34:10;;;;;;;0.10;0.10;;;13.00;99.90;;;;;;5041360;28;20082;-86
2022/07/15 03:36:38;;;;;;;0.10;0.10;;;12.90;99.90;;;;;;5069841;28;20084;-86
2022/07/15 03:39:06;;;;;;;0.10;0.10;;;13.00;99.90;;;;;;5054006;28;20087;-83
2022/07/15 03:41:34;;;;;;;0.00;0.00;;;12.90;99.90;;;;;;5054414;28;20041;-83
2022/07/15 03:44:02;;;;;;;0.00;0.00;;;12.90;99.90;;;;;;5053164;28;20126;-86
2022/07/15 03:46:29;;;;;;;0.10;0.10;;;12.90;99.90;;;;;;5070493;28;20040;-85
2022/07/15 03:48:56;;;;;;;0.03;0.03;;;12.90;99.90;;;;;;5054051;28;20041;-84
2022/07/15 03:51:30;;;;;;;0.10;0.10;;;12.80;99.90;;;;;;5053858;28;20489;-84
2022/07/15 03:54:02;;;;;;;0.20;0.10;;;12.80;99.90;;;;;;5069677;28;20498;-84
2022/07/15 03:56:30;;;;;;;0.10;0.10;;;12.80;99.90;;;;;;5054040;28;20041;-84
2022/07/15 03:58:57;;;;;;;0.10;0.10;;;12.80;99.90;;;;;;5069452;28;20040;-84
2022/07/15 04:01:24;;;;;;;0.10;0.10;;;12.80;99.90;;;;;;5070128;28;20506;-87
2022/07/15 04:03:52;;;;;;;0.17;0.10;;;12.80;99.90;;;;;;5069995;28;20072;-87
2022/07/15 04:06:20;;;;;;;0.00;0.00;;;12.90;99.90;;;;;;5085899;28;20041;-87
2022/07/15 04:08:47;;;;;;;0.08;0.08;;;13.00;99.90;;;;;;5069456;28;20127;-84
2022/07/15 04:11:14;;;;;;;0.10;0.10;;;13.00;99.90;;;;;;5069489;28;20114;-84
2022/07/15 04:13:41;;;;;;;0.20;0.10;;;12.90;99.90;;;;;;5069881;28;20048;-87
2022/07/15 04:16:09;;;;;;;0.00;0.00;;;13.00;99.90;;;;;;5086471;28;20079;-84
2022/07/15 04:18:35;;;;;;;0.00;0.00;;;13.00;99.90;;;;;;5069488;28;20461;-87
2022/07/15 04:21:02;;;;;;;0.20;0.20;;;13.00;99.90;;;;;;5037163;28;20044;-87
2022/07/15 04:23:29;;;;;;;0.00;0.00;;;13.00;99.90;;;;;;5070193;28;20072;-87
2022/07/15 04:25:56;;;;;;;0.10;0.10;;;13.10;99.90;;;;;;5037010;28;20043;-84
2022/07/15 04:28:24;;;;;;;0.00;0.00;;;13.10;99.90;;;;;;5036964;28;20040;-87
2022/07/15 04:30:54;;;;;;;0.10;0.10;;;13.10;99.90;;;;;;5039329;28;20048;-84
2022/07/15 04:33:20;;;;;;;0.10;0.10;;;13.20;99.90;;;;;;5053810;28;20033;-84
2022/07/15 04:35:48;;;;;;;0.00;0.00;;;13.20;99.90;;;;;;5069311;28;20516;-87
2022/07/15 04:38:14;;;;;;;0.00;0.00;;;13.20;99.90;;;;;;5036975;28;20057;-87
2022/07/15 04:40:42;;;;;;;0.10;0.10;;;13.20;99.90;;;;;;5053042;28;20048;-84
2022/07/15 04:43:09;;;;;;;0.00;0.00;;;13.20;99.90;;;;;;5069460;28;20029;-87
2022/07/15 04:45:36;;;;;;;0.10;0.10;;;13.20;99.90;;;;;;5053535;28;20390;-85
2022/07/15 04:50:45;;;;;;;0.55;0.55;;;13.20;99.90;;;;;;5052425;28;20044;-87
2022/07/15 04:50:51;;;;;;;0.10;0.10;;;13.30;99.90;;;;;;5086287;28;20083;-87
2022/07/15 04:53:20;;;;;;;0.10;0.10;;;13.20;99.90;;;;;;5037690;28;20045;-85
2022/07/15 04:55:47;;;;;;;0.10;0.10;;;13.20;99.90;;;;;;5069404;28;20048;-82
2022/07/15 04:58:14;;;;;;;0.10;0.10;;;13.20;99.90;;;;;;5036616;28;20128;-85
2022/07/15 05:00:45;;;;;;;0.22;0.10;;;13.10;99.90;;;;;;5085960;28;20094;-85
2022/07/15 05:03:13;;;;;;;0.00;0.00;;;13.10;99.90;;;;;;5069846;28;20036;-85
2022/07/15 05:05:40;;;;;;;0.00;0.00;;;13.20;99.90;;;;;;5053284;28;20037;-84
2022/07/15 05:08:06;;;;;;;0.10;0.10;;;13.20;99.90;;;;;;5069076;28;20708;-82
2022/07/15 05:10:33;;;;;;;0.00;0.00;;;13.20;99.90;;;;;;5036941;28;20120;-85
2022/07/15 05:13:04;;;;;;;0.00;0.00;;;13.30;99.90;;;;;;5085856;28;20029;-85
2022/07/15 05:15:31;;;;;;;0.00;0.00;;;13.30;99.90;;;;;;5069613;28;20033;-82
2022/07/15 05:17:57;;;;;;;0.00;0.00;;;13.30;99.90;;;;;;5036340;28;20513;-85
2022/07/15 05:20:24;;;;;;;0.10;0.10;;;13.40;99.90;;;;;;5052877;28;20041;-82
2022/07/15 05:22:51;;;;;;;0.00;0.00;;;13.40;99.90;;;;;;5056150;28;20029;-84
2022/07/15 05:25:17;;;;;;;0.08;0.08;;;13.30;99.90;;;;;;5106454;28;20123;-85
2022/07/15 05:27:44;;;;;;;0.00;0.00;;;13.30;99.90;;;;;;5097257;28;20486;-85
2022/07/15 05:30:16;;;;;;;0.05;0.05;;;13.40;99.90;;;;;;5076748;28;20082;-85
2022/07/15 05:32:43;;;;;;;0.10;0.10;;;13.50;99.90;;;;;;5057535;28;20040;-82
2022/07/15 05:35:11;;;;;;;0.10;0.10;;;13.60;99.90;;;;;;5088967;28;20390;-85
2022/07/15 05:37:39;;;;;;;0.10;0.10;;;13.70;99.90;;;;;;5078229;28;20189;-85
2022/07/15 05:40:07;;;;;;;0.00;0.00;;;13.70;99.90;;;;;;5109002;28;20055;-82
2022/07/15 05:42:34;;;;;;;0.10;0.10;;;13.70;99.90;;;;;;5095417;28;20036;-82
2022/07/15 05:45:01;;;;;;;0.00;0.00;;;13.70;99.90;;;;;;5108997;28;20043;-85
2022/07/15 05:47:28;;;;;;;0.10;0.10;;;13.80;99.90;;;;;;5075944;28;20036;-82
2022/07/15 05:49:55;;;;;;;0.00;0.00;;;13.80;99.90;;;;;;5065946;28;20080;-85
2022/07/15 05:52:21;;;;;;;0.10;0.10;;;13.90;99.90;;;;;;5076007;28;20051;-83
2022/07/15 05:54:48;;;;;;;0.00;0.00;;;13.90;99.90;;;;;;5042986;28;20078;-83
2022/07/15 05:57:15;;;;;;;0.10;0.10;;;13.90;99.90;;;;;;5059148;28;20464;-82
2022/07/15 05:59:43;;;;;;;0.10;0.10;;;14.00;99.90;;;;;;5059838;28;20045;-83
2022/07/15 06:02:09;;;;;;;0.05;0.05;;;14.00;99.90;;;;;;5046194;28;20825;-83
2022/07/15 06:04:36;;;;;;;0.00;0.00;;;14.00;99.90;;;;;;5076511;28;20047;-85
2022/07/15 06:07:03;;;;;;;0.00;0.00;;;14.00;99.90;;;;;;5055096;28;20040;-85
2022/07/15 06:09:30;;;;;;;0.10;0.10;;;14.10;99.90;;;;;;5043470;28;20485;-83
2022/07/15 06:11:58;;;;;;;0.00;0.00;;;14.10;99.90;;;;;;5073655;28;20040;-85
2022/07/15 06:14:25;;;;;;;0.03;0.03;;;14.20;99.90;;;;;;5044571;28;20048;-83
2022/07/15 06:16:51;;;;;;;0.00;0.00;;;14.20;99.90;;;;;;5095704;28;20055;-83
2022/07/15 06:19:18;;;;;;;0.30;0.17;;;14.20;99.90;;;;;;5050729;28;20040;-83
2022/07/15 06:21:45;;;;;;;0.00;0.00;;;14.30;99.90;;;;;;5070487;28;20055;-85
2022/07/15 06:24:12;;;;;;;0.00;0.00;;;14.50;99.90;;;;;;5077515;28;20028;-83
2022/07/15 06:26:39;;;;;;;0.10;0.10;;;14.60;99.90;;;;;;5075768;28;20036;-85
2022/07/15 06:29:06;;;;;;;0.10;0.10;;;15.00;99.90;;;;;;5082364;28;20036;-86
2022/07/15 06:31:32;;;;;;;0.08;0.03;;;15.20;99.90;;;;;;5058855;28;20041;-84
2022/07/15 06:33:59;;;;;;;0.00;0.00;;;15.40;99.90;;;;;;5077618;28;20127;-85
2022/07/15 06:36:26;;;;;;;0.10;0.00;;;15.50;99.90;;;;;;5096914;28;20072;-83
2022/07/15 06:38:53;;;;;;;0.00;0.00;;;15.60;99.90;;;;;;5058798;28;20049;-83
2022/07/15 06:41:20;;;;;;;0.10;0.10;;;15.70;99.90;;;;;;5058192;28;20119;-81
2022/07/15 06:43:47;;;;;;;0.10;0.10;;;15.70;99.90;;;;;;5058324;28;20032;-84
2022/07/15 06:46:13;;;;;;;0.00;0.00;;;15.70;99.90;;;;;;5108130;28;20040;-82
2022/07/15 06:48:41;;;;;;;0.10;0.10;;;15.70;99.90;;;;;;5091600;28;20043;-82
2022/07/15 06:51:08;;;;;;;0.20;0.10;;;15.80;99.90;;;;;;5108477;28;20036;-84
2022/07/15 06:53:36;;;;;;;0.00;0.00;;;15.90;99.90;;;;;;5106687;28;20114;-83
2022/07/15 06:56:03;;;;;;;0.00;0.00;;;15.90;99.90;;;;;;5091483;28;20110;-82
2022/07/15 06:58:30;;;;;;;0.20;0.10;;;15.90;99.90;;;;;;5074602;28;20539;-81
2022/07/15 07:00:57;;;;;;;0.00;0.00;;;15.90;99.90;;;;;;5075423;28;20072;-85
2022/07/15 07:03:26;;;;;;;0.00;0.00;;;16.00;99.90;;;;;;5107759;28;20044;-85
2022/07/15 07:05:53;;;;;;;0.22;0.10;;;16.00;99.90;;;;;;5098879;28;20115;-85
2022/07/15 07:08:19;;;;;;;0.00;0.00;;;16.10;99.90;;;;;;5042232;28;20528;-86
2022/07/15 07:10:46;;;;;;;0.00;0.00;;;16.00;99.90;;;;;;5071302;28;20123;-83
2022/07/15 07:13:13;;;;;;;0.10;0.10;;;16.00;99.90;;;;;;5070694;28;20047;-85
2022/07/15 07:15:39;;;;;;;0.00;0.00;;;16.00;99.90;;;;;;5038662;28;20045;-86
2022/07/15 07:18:06;;;;;;;0.10;0.10;;;15.90;99.90;;;;;;5038345;28;20406;-88
2022/07/15 07:20:33;;;;;;;0.03;0.03;;;15.90;99.90;;;;;;5054943;28;20048;-85
2022/07/15 07:23:00;;;;;;;0.10;0.10;;;15.90;99.90;;;;;;5057731;28;20624;-88
2022/07/15 07:25:27;;;;;;;0.10;0.03;;;15.80;99.90;;;;;;5107436;28;20078;-86
2022/07/15 07:27:53;;;;;;;0.00;0.00;;;15.80;99.90;;;;;;5091110;28;20044;-88
2022/07/15 07:30:20;;;;;;;0.00;0.00;;;15.80;99.90;;;;;;5090559;28;20482;-85
2022/07/15 07:32:47;;;;;;;0.00;0.00;;;15.70;99.90;;;;;;5073822;28;20047;-89
2022/07/15 07:35:13;;;;;;;0.00;0.00;;;15.80;99.90;;;;;;5107937;28;20044;-89
2022/07/15 07:37:40;;;;;;;0.00;0.00;;;16.00;99.90;;;;;;5094561;28;20143;-86
2022/07/15 07:40:08;;;;;;;0.00;0.00;;;16.20;99.90;;;;;;5094296;28;20075;-86
2022/07/15 07:42:35;;;;;;;0.00;0.00;;;16.50;99.90;;;;;;5066064;28;20047;-86
2022/07/15 07:45:03;;;;;;;0.00;0.00;;;16.70;99.90;;;;;;5063592;28;20032;-87
2022/07/15 07:47:29;;;;;;;0.00;0.00;;;16.80;99.90;;;;;;5094584;28;20035;-89
2022/07/15 07:49:56;;;;;;;0.00;0.00;;;16.70;99.90;;;;;;5094467;28;20047;-88
2022/07/15 07:52:23;;;;;;;0.00;0.00;;;16.80;99.90;;;;;;5104795;28;20401;-88
2022/07/15 07:54:50;;;;;;;0.00;0.00;;;16.70;99.90;;;;;;5096306;28;20051;-86
2022/07/15 07:57:17;;;;;;;0.00;0.00;;;16.50;99.90;;;;;;5085876;28;20120;-88
2022/07/15 07:59:43;;;;;;;0.00;0.00;;;16.50;99.90;;;;;;5088101;28;20413;-86
2022/07/15 08:02:10;;;;;;;0.00;0.00;;;16.40;99.90;;;;;;5071702;28;20477;-86
2022/07/15 08:04:38;;;;;;;0.03;0.03;;;16.40;99.90;;;;;;5074574;28;20062;-85
2022/07/15 08:07:06;;;;;;;0.00;0.00;;;16.40;99.90;;;;;;5066268;28;20083;-87
2022/07/15 08:09:32;;;;;;;0.10;0.10;;;16.40;99.90;;;;;;5070311;28;20037;-84
2022/07/15 08:11:59;;;;;;;0.17;0.10;;;16.30;99.90;;;;;;5086692;28;20059;-87
2022/07/15 08:14:27;;;;;;;0.00;0.00;;;16.40;99.90;;;;;;5068284;28;20482;-87
2022/07/15 08:16:54;;;;;;;0.00;0.00;;;16.60;99.90;;;;;;5091824;28;20413;-89
2022/07/15 08:19:20;;;;;;;0.00;0.00;;;16.70;99.90;;;;;;5073019;28;20045;-90
2022/07/15 08:21:47;;;;;;;0.05;0.05;;;16.80;99.90;;;;;;5041597;28;20040;-85
2022/07/15 08:24:14;;;;;;;0.00;0.00;;;17.00;99.90;;;;;;5056174;28;20127;-85
2022/07/15 08:26:41;;;;;;;0.30;0.10;;;17.10;99.90;;;;;;5040774;28;20119;-84
2022/07/15 08:29:08;;;;;;;0.05;0.00;;;17.10;99.90;;;;;;5056645;28;20466;-84
2022/07/15 08:31:36;;;;;;;0.75;0.10;;;17.20;99.90;;;;;;5056940;28;20055;-86
2022/07/15 08:34:04;;;;;;;0.03;0.03;;;17.40;99.90;;;;;;5056729;28;20378;-86
2022/07/15 08:36:30;;;;;;;0.00;0.00;;;17.50;99.90;;;;;;5040164;28;20037;-85
2022/07/15 08:38:57;;;;;;;0.00;0.00;;;17.70;99.90;;;;;;5089516;28;20056;-86
2022/07/15 08:41:24;;;;;;;0.00;0.00;;;17.60;99.90;;;;;;5072891;28;20048;-87
2022/07/15 08:43:51;;;;;;;0.10;0.10;;;17.80;99.90;;;;;;5040258;28;20038;-85
2022/07/15 08:46:19;;;;;;;0.00;0.00;;;17.80;99.90;;;;;;5056590;28;20079;-85
2022/07/15 08:48:51;;;;;;;0.00;0.00;;;17.80;99.90;;;;;;5057064;28;20036;-83
2022/07/15 08:51:22;;;;;;;0.00;0.00;;;17.80;99.90;;;;;;5073196;28;20040;-84
2022/07/15 08:53:50;;;;;;;0.00;0.00;;;18.00;99.90;;;;;;5090313;28;20454;-86
2022/07/15 08:56:19;;;;;;;0.00;0.00;;;18.20;99.90;;;;;;5040625;28;20044;-82
2022/07/15 08:58:46;;;;;;;0.00;0.00;;;18.40;99.90;;;;;;5073065;28;20505;-86
2022/07/15 09:01:13;;;;;;;0.00;0.00;;;18.60;99.90;;;;;;5041650;28;20086;-85
2022/07/15 09:03:39;;;;;;;0.10;0.10;;;18.50;99.90;;;;;;5055042;28;20048;-82
2022/07/15 09:06:06;;;;;;;0.00;0.00;;;18.50;99.90;;;;;;5042744;28;20036;-84
2022/07/15 09:08:34;;;;;;;0.00;0.00;;;18.40;99.90;;;;;;5056058;28;20062;-80
2022/07/15 09:11:01;;;;;;;0.08;0.08;;;18.30;99.90;;;;;;5089018;28;20110;-81
2022/07/15 09:13:38;;;;;;;0.10;0.10;;;18.30;99.90;;;;;;5056209;28;20041;-80
2022/07/15 09:16:10;;;;;;;0.00;0.00;;;18.40;99.90;;;;;;5073305;28;20046;-82
2022/07/15 09:18:42;;;;;;;0.00;0.00;;;18.50;99.90;;;;;;5076342;28;20032;-81
2022/07/15 09:21:25;;;;;;;0.00;0.00;;;18.60;99.90;;;;;;5076405;28;20028;-81
2022/07/15 09:23:53;;;;;;;0.00;0.00;;;18.60;99.90;;;;;;5076784;28;20040;-86
2022/07/15 09:26:36;;;;;;;0.22;0.08;;;18.70;99.90;;;;;;5076481;28;20040;-88
2022/07/15 09:33:34;;;;;;;0.00;0.00;;;18.70;99.90;;;;;;5076294;28;20032;-81
2022/07/15 09:35:04;;;;;;;0.00;0.00;;;18.70;99.90;;;;;;5055998;28;20040;-82
2022/07/15 09:37:31;;;;;;;0.00;0.00;;;18.60;99.90;;;;;;5090754;28;20059;-82
2022/07/15 09:39:58;;;;;;;0.00;0.00;;;18.70;99.90;;;;;;5092376;28;20044;-81
2022/07/15 09:42:24;;;;;;;0.00;0.00;;;18.90;99.90;;;;;;5074998;28;20041;-81
2022/07/15 09:44:51;;;;;;;0.05;0.05;;;19.10;99.90;;;;;;5075884;28;20043;-81
2022/07/15 09:47:19;;;;;;;0.00;0.00;;;19.30;99.90;;;;;;5076538;28;20037;-79
2022/07/15 09:49:47;;;;;;;0.00;0.00;;;19.50;99.90;;;;;;5075710;28;20599;-86
2022/07/15 09:52:14;;;;;;;0.00;0.00;;;19.60;99.90;;;;;;5076884;28;20047;-81
2022/07/15 09:54:43;;;;;;;0.00;0.00;;;19.70;99.90;;;;;;5075461;28;20100;-86
2022/07/15 09:57:16;;;;;;;0.00;0.00;;;19.90;99.90;;;;;;5091060;28;20040;-82
2022/07/15 09:59:43;;;;;;;0.00;0.00;;;20.10;99.90;;;;;;5083967;28;20035;-85
2022/07/15 10:02:11;;;;;;;0.10;0.10;;;20.40;99.90;;;;;;5109593;28;20047;-79
2022/07/15 10:04:38;;;;;;;0.08;0.08;;;20.40;99.90;;;;;;5081058;28;20101;-80
2022/07/15 10:07:06;;;;;;;0.00;0.00;;;20.20;99.90;;;;;;5075827;28;20040;-85
2022/07/15 10:09:36;;;;;;;0.00;0.00;;;20.30;99.90;;;;;;5075341;28;20098;-86
2022/07/15 10:12:10;;;;;;;0.25;0.15;;;20.50;99.90;;;;;;5075252;28;20044;-78
2022/07/15 10:14:55;;;;;;;0.40;0.10;;;20.50;99.90;;;;;;5125504;28;20048;-87
2022/07/15 10:17:27;;;;;;;0.00;0.00;;;20.60;99.90;;;;;;5078155;28;20036;-84
2022/07/15 10:20:19;;;;;;;0.10;0.10;;;20.10;99.90;;;;;;5087190;28;20048;-87
2022/07/15 10:23:18;;;;;;;0.00;0.00;;;19.70;99.90;;;;;;5092502;28;20123;-86
2022/07/15 10:26:10;;;;;;;0.00;0.00;;;19.10;99.90;;;;;;5093221;28;20044;-86
2022/07/15 10:28:50;;;;;;;0.00;0.00;;;18.80;99.90;;;;;;5075403;28;20513;-81
2022/07/15 10:31:26;;;;;;;0.00;0.00;;;18.70;99.90;;;;;;5128418;28;20040;-81
2022/07/15 10:34:02;;;;;;;0.10;0.10;;;18.60;99.90;;;;;;5108685;28;20045;-82
2022/07/15 10:36:40;;;;;;;0.00;0.00;;;18.50;99.90;;;;;;5087594;28;20131;-87
2022/07/15 10:39:08;;;;;;;0.00;0.00;;;18.40;99.90;;;;;;5075935;28;20056;-82
2022/07/15 10:41:58;;;;;;;0.08;0.08;;;18.40;99.90;;;;;;5059285;28;20047;-83
2022/07/15 10:44:27;;;;;;;0.00;0.00;;;18.50;99.90;;;;;;5087308;28;20123;-81
2022/07/15 10:47:12;;;;;;;0.00;0.00;;;18.60;99.90;;;;;;5066935;28;20037;-82
2022/07/15 10:49:43;;;;;;;0.00;0.00;;;18.60;99.90;;;;;;5091516;28;20060;-88
2022/07/15 10:52:18;;;;;;;0.10;0.00;;;18.90;99.90;;;;;;5076352;28;20489;-88
2022/07/15 10:54:50;;;;;;;0.00;0.00;;;19.00;99.90;;;;;;5073346;28;20044;-83
2022/07/15 10:57:19;;;;;;;0.03;0.03;;;19.10;99.90;;;;;;5074041;28;20048;-83
2022/07/15 10:59:56;;;;;;;0.00;0.00;;;19.10;99.90;;;;;;5064691;28;20072;-87
2022/07/15 11:02:25;;;;;;;0.63;0.20;;;19.10;99.90;;;;;;5107849;28;20048;-83
2022/07/15 11:05:13;;;;;;;0.00;0.00;;;19.10;99.90;;;;;;5074743;28;20040;-88
2022/07/15 11:07:39;;;;;;;0.00;0.00;;;19.10;99.90;;;;;;5083593;28;20040;-84
2022/07/15 11:10:06;;;;;;;0.00;0.00;;;19.10;99.90;;;;;;5090966;28;20044;-88
2022/07/15 11:12:34;;;;;;;0.10;0.10;;;19.30;99.90;;;;;;5090387;28;20067;-83
2022/07/15 11:15:06;;;;;;;0.05;0.03;;;19.30;99.90;;;;;;5076761;28;20040;-86
2022/07/15 11:17:32;;;;;;;0.00;0.00;;;19.40;99.90;;;;;;5082952;28;20094;-88
2022/07/15 11:20:04;;;;;;;0.00;0.00;;;19.30;99.90;;;;;;5073795;28;20044;-83
2022/07/15 11:22:31;;;;;;;0.00;0.00;;;19.30;99.90;;;;;;5074267;28;20558;-83
2022/07/15 11:24:58;;;;;;;0.22;0.20;;;19.30;99.90;;;;;;5057677;28;20040;-87
2022/07/15 11:27:25;;;;;;;0.13;0.10;;;19.30;99.90;;;;;;5074361;28;20400;-83
2022/07/15 11:30:01;;;;;;;0.00;0.00;;;19.40;99.90;;;;;;5073357;28;20032;-87
2022/07/15 11:32:29;;;;;;;0.10;0.10;;;19.30;99.90;;;;;;5073882;28;20412;-87
2022/07/15 11:34:58;;;;;;;0.00;0.00;;;19.20;99.90;;;;;;5057171;28;20044;-89
2022/07/15 11:37:27;;;;;;;0.00;0.00;;;19.20;99.90;;;;;;5069323;28;20053;-81
2022/07/15 11:45:56;;;;;;;0.00;0.00;;;18.70;99.90;;;;;;5105841;28;20683;-86
2022/07/15 11:48:23;;;;;;;0.00;0.00;;;18.40;99.90;;;;;;5073326;28;20029;-82
2022/07/15 11:50:55;;;;;;;0.10;0.10;;;18.30;99.90;;;;;;5072110;28;20045;-87
2022/07/15 11:53:23;;;;;;;0.10;0.10;;;18.00;99.90;;;;;;5069507;28;20500;-85
2022/07/15 11:55:56;;;;;;;0.00;0.00;;;17.90;99.90;;;;;;5114588;28;20086;-85
2022/07/15 11:58:49;;;;;;;0.00;0.00;;;17.70;99.90;;;;;;5069498;28;20449;-84
2022/07/15 12:01:20;;;;;;;0.05;0.00;;;17.60;99.90;;;;;;5072861;28;20790;-84
2022/07/15 12:03:52;;;;;;;0.20;0.20;;;17.60;99.90;;;;;;5105421;28;20079;-85
2022/07/15 12:06:27;;;;;;;0.10;0.10;;;17.50;99.90;;;;;;5065057;28;20125;-85
2022/07/15 12:08:57;;;;;;;0.00;0.00;;;17.40;99.90;;;;;;5096118;28;20036;-85
2022/07/15 12:11:30;;;;;;;0.00;0.00;;;17.50;99.90;;;;;;5099509;28;20490;-83
2022/07/15 12:14:08;;;;;;;0.63;0.20;;;17.50;99.90;;;;;;5121950;28;20072;-85
2022/07/15 12:16:56;;;;;;;0.00;0.00;;;17.60;99.90;;;;;;5106717;28;20040;-84
2022/07/15 12:19:27;;;;;;;0.03;0.03;;;17.70;99.90;;;;;;5077340;28;20040;-84
2022/07/15 12:22:00;;;;;;;0.00;0.00;;;17.90;99.90;;;;;;5077111;28;20037;-86
2022/07/15 12:24:38;;;;;;;0.00;0.00;;;18.10;99.90;;;;;;5093163;28;20032;-84
2022/07/15 12:27:05;;;;;;;0.00;0.00;;;18.30;99.90;;;;;;5109868;28;20711;-84
2022/07/15 12:29:33;;;;;;;0.00;0.00;;;18.50;99.90;;;;;;5112167;28;20094;-85
2022/07/15 12:32:06;;;;;;;0.10;0.10;;;18.60;99.90;;;;;;5090078;28;20109;-88
2022/07/15 12:34:48;;;;;;;0.00;0.00;;;18.80;99.90;;;;;;5108204;28;20044;-88
2022/07/15 12:37:27;;;;;;;0.00;0.00;;;18.90;99.90;;;;;;5110586;28;20516;-88
2022/07/15 12:40:04;;;;;;;0.03;0.03;;;18.90;99.90;;;;;;5118422;28;20037;-88
2022/07/15 12:42:52;;;;;;;0.00;0.00;;;18.80;99.90;;;;;;5107303;28;20044;-88
2022/07/15 12:45:24;;;;;;;0.00;0.00;;;18.70;99.90;;;;;;5106863;28;20040;-92
2022/07/15 12:47:57;;;;;;;0.10;0.10;;;18.50;99.90;;;;;;5106945;28;20481;-93
2022/07/15 12:50:25;;;;;;;0.10;0.10;;;18.40;99.90;;;;;;5091858;28;20997;-93
2022/07/15 12:52:54;;;;;;;0.00;0.00;;;18.10;99.90;;;;;;5111207;28;20520;-90
2022/07/15 12:55:27;;;;;;;0.00;0.00;;;18.00;99.90;;;;;;5111337;28;20040;-89
2022/07/15 12:58:08;;;;;;;0.00;0.00;;;17.90;99.90;;;;;;5077837;28;20052;-93
2022/07/15 13:00:36;;;;;;;0.00;0.00;;;17.70;99.90;;;;;;5111010;28;20055;-89
2022/07/15 13:03:14;;;;;;;0.00;0.00;;;17.70;99.90;;;;;;5094310;28;20808;-90
2022/07/15 13:05:44;;;;;;;0.00;0.00;;;17.50;99.90;;;;;;5078332;28;20037;-93
2022/07/15 13:08:14;;;;;;;0.00;0.00;;;17.40;99.90;;;;;;5077167;28;20039;-89
2022/07/15 13:10:44;;;;;;;0.00;0.00;;;17.40;99.90;;;;;;5077954;28;20032;-93
2022/07/15 13:13:13;;;;;;;0.10;0.00;;;17.30;99.90;;;;;;5110899;28;20113;-93